Time;durP1;ratioP1;P1;durP2;ratioP2;P2;SDS_P1;SDS_P2;PMS_P1;PMS_P2;Temp;Humidity;BMP_temperature;BMP_pressure;BME280_temperature;BME280_humidity;BME280_pressure;Samples;Min_cycle;Max_cycle;Signal;HPM_P1;HPM_P2
2024/01/05 00:00:39;;;;;;;0.33;0.33;;;;;;;5.28;84.29;94580.25;4388037;32;20367;-73
2024/01/05 00:03:09;;;;;;;1.43;1.07;;;;;;;5.33;84.13;94579.44;4386782;32;20238;-73
2024/01/05 00:05:36;;;;;;;0.20;0.20;;;;;;;5.28;84.07;94577.62;4356948;32;20292;-74
2024/01/05 00:08:03;;;;;;;3.67;0.63;;;;;;;5.35;83.85;94572.06;4377919;32;20359;-73
2024/01/05 00:10:29;;;;;;;0.47;0.47;;;;;;;5.39;83.54;94563.31;4398246;32;20288;-73
2024/01/05 00:12:56;;;;;;;0.30;0.30;;;;;;;5.45;82.92;94559.56;4361101;32;20303;-74
2024/01/05 00:15:25;;;;;;;0.40;0.40;;;;;;;5.09;84.20;94569.66;4387721;32;20315;-73
2024/01/05 00:17:53;;;;;;;1.10;0.63;;;;;;;5.05;84.85;94562.59;4373931;32;20359;-73
2024/01/05 00:20:18;;;;;;;0.70;0.70;;;;;;;5.02;85.13;94553.41;4351680;32;20291;-74
2024/01/05 00:22:45;;;;;;;0.50;0.50;;;;;;;4.77;86.05;94556.28;4349409;32;20280;-75
2024/01/05 00:25:11;;;;;;;0.60;0.60;;;;;;;4.78;86.11;94548.09;4365052;32;20188;-73
2024/01/05 00:27:37;;;;;;;0.83;0.83;;;;;;;4.56;86.94;94553.03;4364199;32;20288;-73
2024/01/05 00:30:04;;;;;;;0.70;0.70;;;;;;;4.41;87.85;94550.50;4390821;32;20402;-74
2024/01/05 00:32:31;;;;;;;0.40;0.40;;;;;;;4.39;88.13;94550.78;4379128;32;20196;-73
2024/01/05 00:34:56;;;;;;;1.87;0.87;;;;;;;4.65;87.23;94550.59;4384082;32;20276;-74
2024/01/05 00:37:23;;;;;;;4.43;1.10;;;;;;;4.67;86.81;94541.38;4373370;32;20317;-74
2024/01/05 00:39:52;;;;;;;0.70;0.70;;;;;;;4.61;86.49;94539.84;4395010;32;20193;-74
2024/01/05 00:42:17;;;;;;;0.90;0.90;;;;;;;4.46;87.23;94542.59;4379208;32;20360;-73
2024/01/05 00:44:44;;;;;;;0.20;0.20;;;;;;;4.74;86.37;94541.84;4373637;32;20320;-73
2024/01/05 00:47:09;;;;;;;1.10;0.87;;;;;;;4.79;85.77;94539.16;4376040;32;20184;-73
2024/01/05 00:49:39;;;;;;;1.13;0.80;;;;;;;4.86;85.32;94543.31;4381769;32;20288;-73
2024/01/05 00:52:10;;;;;;;0.60;0.60;;;;;;;5.05;84.47;94537.09;4370259;32;20224;-63
2024/01/05 00:54:37;;;;;;;0.20;0.20;;;;;;;5.13;84.04;94533.09;4385650;32;20343;-73
2024/01/05 00:57:04;;;;;;;0.07;0.07;;;;;;;5.29;82.85;94525.81;4359090;32;20367;-73
2024/01/05 00:59:29;;;;;;;0.40;0.40;;;;;;;4.89;83.96;94525.16;4380738;32;20349;-73
2024/01/05 01:01:57;;;;;;;0.67;0.67;;;;;;;4.68;84.72;94526.41;4372393;32;20281;-74
2024/01/05 01:04:22;;;;;;;0.50;0.50;;;;;;;4.63;85.08;94523.81;4378131;32;20205;-73
2024/01/05 01:06:50;;;;;;;0.40;0.40;;;;;;;4.50;85.73;94520.00;4377326;32;20307;-74
2024/01/05 01:09:17;;;;;;;5.10;0.80;;;;;;;4.56;85.62;94513.66;4376274;32;20280;-74
2024/01/05 01:11:44;;;;;;;0.60;0.60;;;;;;;4.49;85.45;94513.16;4375171;32;20418;-74
2024/01/05 01:14:11;;;;;;;1.33;0.50;;;;;;;4.70;85.20;94503.28;4375947;32;20275;-73
2024/01/05 01:16:36;;;;;;;0.37;0.37;;;;;;;4.75;84.48;94501.41;4373089;32;20300;-74
2024/01/05 01:19:06;;;;;;;1.23;0.93;;;;;;;4.87;84.08;94489.72;4379949;32;20291;-73
2024/01/05 01:21:35;;;;;;;0.50;0.50;;;;;;;4.74;83.92;94497.19;4383011;32;20209;-73
2024/01/05 01:24:00;;;;;;;1.20;0.87;;;;;;;4.49;84.91;94492.16;4378383;32;20304;-64
2024/01/05 01:26:27;;;;;;;0.60;0.60;;;;;;;4.52;84.77;94501.34;4376870;32;20307;-74
2024/01/05 01:28:52;;;;;;;0.60;0.60;;;;;;;4.33;85.39;94496.75;4367302;32;20260;-73
2024/01/05 01:31:19;;;;;;;0.17;0.17;;;;;;;4.32;85.44;94497.81;4384123;32;20276;-73
2024/01/05 01:33:45;;;;;;;0.30;0.30;;;;;;;4.19;86.05;94490.53;4394864;32;20216;-73
2024/01/05 01:36:12;;;;;;;0.53;0.53;;;;;;;4.03;87.01;94489.87;4369303;32;20294;-73
2024/01/05 01:38:39;;;;;;;0.50;0.50;;;;;;;3.92;87.39;94472.63;4382127;32;20305;-73
2024/01/05 01:41:07;;;;;;;0.73;0.73;;;;;;;4.06;87.21;94470.16;4356776;32;20292;-74
2024/01/05 01:43:32;;;;;;;0.40;0.40;;;;;;;4.08;86.77;94471.47;4385837;32;20291;-73
2024/01/05 01:46:01;;;;;;;0.63;0.63;;;;;;;4.29;86.01;94474.72;4391247;32;20273;-73
2024/01/05 01:48:30;;;;;;;4.17;0.83;;;;;;;4.16;85.75;94469.31;4388580;32;20283;-73
2024/01/05 01:50:58;;;;;;;0.20;0.20;;;;;;;3.91;86.94;94465.81;4388844;32;20321;-74
2024/01/05 01:53:29;;;;;;;1.70;0.60;;;;;;;4.07;86.42;94463.88;4361381;32;20281;-74
2024/01/05 01:55:56;;;;;;;5.80;0.60;;;;;;;3.90;86.92;94466.09;4387268;32;20286;-74
2024/01/05 01:58:24;;;;;;;0.43;0.23;;;;;;;4.00;86.54;94472.03;4369276;32;20343;-74
2024/01/05 02:00:51;;;;;;;0.00;0.00;;;;;;;4.31;85.06;94463.94;4369228;32;20322;-74
2024/01/05 02:03:19;;;;;;;0.07;0.07;;;;;;;4.44;84.60;94455.44;4345784;32;20276;-74
2024/01/05 02:05:47;;;;;;;0.30;0.30;;;;;;;4.54;83.91;94451.94;4344272;32;20268;-74
2024/01/05 02:08:14;;;;;;;0.47;0.47;;;;;;;4.14;84.66;94453.84;4372026;32;20378;-73
2024/01/05 02:10:43;;;;;;;0.20;0.20;;;;;;;3.87;85.91;94464.78;4330513;32;20277;-73
2024/01/05 02:13:09;;;;;;;0.20;0.20;;;;;;;3.71;86.76;94453.63;4375496;32;20294;-73
2024/01/05 02:15:39;;;;;;;0.47;0.47;;;;;;;3.88;86.15;94453.25;4393636;32;20276;-73
2024/01/05 02:18:15;;;;;;;1.30;0.87;;;;;;;3.84;86.21;94443.56;4368924;32;20294;-73
2024/01/05 02:20:47;;;;;;;0.30;0.30;;;;;;;3.77;86.06;94438.59;4363864;32;20309;-71
2024/01/05 02:23:27;;;;;;;15.00;0.77;;;;;;;3.95;85.70;94432.72;4359981;32;20323;-73
2024/01/05 02:25:54;;;;;;;0.07;0.07;;;;;;;4.29;84.29;94426.69;4356045;32;20296;-74
2024/01/05 02:28:22;;;;;;;0.57;0.57;;;;;;;4.51;83.09;94415.72;4326924;32;20299;-73
2024/01/05 02:30:49;;;;;;;0.20;0.20;;;;;;;4.61;82.03;94408.53;4373300;32;20390;-74
2024/01/05 02:33:16;;;;;;;0.40;0.40;;;;;;;4.54;81.92;94405.47;4380562;32;20280;-73
2024/01/05 02:35:41;;;;;;;2.00;0.50;;;;;;;4.49;81.64;94402.88;4386171;32;20323;-74
2024/01/05 02:38:07;;;;;;;0.20;0.20;;;;;;;4.57;80.92;94383.91;4358359;32;20284;-74
2024/01/05 02:40:35;;;;;;;0.07;0.03;;;;;;;4.40;80.77;94389.56;4355730;32;20195;-72
2024/01/05 02:43:00;;;;;;;0.23;0.20;;;;;;;4.48;80.84;94375.84;4381577;32;20222;-73
2024/01/05 02:45:27;;;;;;;0.20;0.20;;;;;;;4.50;80.87;94378.19;4390471;32;20277;-73
2024/01/05 02:47:53;;;;;;;0.20;0.20;;;;;;;4.35;80.70;94376.50;4375904;32;20208;-74
2024/01/05 02:50:20;;;;;;;0.40;0.40;;;;;;;4.18;81.66;94364.84;4342717;32;20395;-74
2024/01/05 02:52:47;;;;;;;0.10;0.10;;;;;;;4.37;81.07;94342.84;4364402;32;20376;-74
2024/01/05 02:55:14;;;;;;;0.30;0.30;;;;;;;4.55;80.31;94351.88;4370312;32;20268;-73
2024/01/05 02:57:41;;;;;;;0.10;0.10;;;;;;;4.62;79.48;94335.78;4380429;32;20288;-74
2024/01/05 03:00:07;;;;;;;0.37;0.33;;;;;;;4.83;78.89;94340.50;4374398;32;20311;-73
2024/01/05 03:02:34;;;;;;;0.20;0.20;;;;;;;4.58;78.98;94338.16;4384318;32;20303;-73
2024/01/05 03:05:01;;;;;;;0.27;0.20;;;;;;;4.49;79.32;94337.25;4386313;32;20275;-74
2024/01/05 03:07:29;;;;;;;0.43;0.33;;;;;;;4.39;80.02;94332.06;4360495;32;20285;-73
2024/01/05 03:09:54;;;;;;;0.30;0.30;;;;;;;4.41;79.74;94332.59;4381641;32;20276;-74
2024/01/05 03:12:22;;;;;;;0.40;0.40;;;;;;;4.41;79.39;94328.13;4380831;32;20375;-74
2024/01/05 03:14:50;;;;;;;0.70;0.30;;;;;;;4.34;79.73;94321.66;4375402;32;20268;-74
2024/01/05 03:17:16;;;;;;;0.10;0.10;;;;;;;4.24;80.01;94316.50;4366070;32;20284;-74
2024/01/05 03:19:42;;;;;;;0.60;0.60;;;;;;;4.39;79.66;94311.84;4373267;32;20348;-74
2024/01/05 03:22:08;;;;;;;0.10;0.10;;;;;;;4.12;79.73;94312.41;4390696;32;20203;-74
2024/01/05 03:24:35;;;;;;;0.20;0.20;;;;;;;4.06;80.27;94308.28;4391179;32;20276;-73
2024/01/05 03:27:00;;;;;;;0.13;0.13;;;;;;;3.93;80.63;94298.44;4383158;32;20283;-67
2024/01/05 03:29:29;;;;;;;0.20;0.20;;;;;;;4.02;80.68;94288.88;4372506;32;20281;-74
2024/01/05 03:31:56;;;;;;;0.23;0.23;;;;;;;4.12;80.02;94288.81;4375625;32;20248;-74
2024/01/05 03:34:23;;;;;;;0.27;0.27;;;;;;;4.20;79.62;94283.97;4386353;32;20324;-73
2024/01/05 03:36:49;;;;;;;0.83;0.30;;;;;;;4.54;78.53;94291.75;4396194;32;20277;-74
2024/01/05 03:39:15;;;;;;;0.10;0.10;;;;;;;4.46;77.87;94293.16;4359089;32;20285;-74
2024/01/05 03:41:41;;;;;;;0.10;0.10;;;;;;;4.39;78.14;94288.22;4362605;32;20302;-74
2024/01/05 03:44:06;;;;;;;0.33;0.20;;;;;;;4.45;77.79;94283.72;4357660;32;20196;-74
2024/01/05 03:46:33;;;;;;;0.50;0.50;;;;;;;4.50;77.72;94283.66;4364867;32;20352;-73
2024/01/05 03:48:59;;;;;;;0.00;0.00;;;;;;;4.51;77.97;94276.56;4366179;32;20195;-63
2024/01/05 03:51:26;;;;;;;0.00;0.00;;;;;;;4.68;77.27;94282.91;4375801;32;20303;-74
2024/01/05 03:53:57;;;;;;;0.07;0.07;;;;;;;4.54;77.21;94276.78;4376207;32;20295;-74
2024/01/05 03:56:23;;;;;;;0.00;0.00;;;;;;;4.55;77.36;94280.97;4333132;32;20285;-74
2024/01/05 03:58:50;;;;;;;0.10;0.10;;;;;;;4.72;76.79;94281.28;4377965;32;20296;-73
2024/01/05 04:01:17;;;;;;;0.10;0.10;;;;;;;4.69;76.74;94286.31;4357101;32;20284;-74
2024/01/05 04:03:43;;;;;;;0.10;0.10;;;;;;;4.81;76.30;94276.97;4364294;32;20319;-73
2024/01/05 04:06:22;;;;;;;0.17;0.17;;;;;;;4.63;76.34;94272.47;4385183;32;20291;-74
2024/01/05 04:08:48;;;;;;;0.30;0.30;;;;;;;4.63;77.15;94272.47;4388056;32;20389;-74
2024/01/05 04:11:20;;;;;;;0.10;0.10;;;;;;;4.66;76.68;94258.78;4365940;32;20308;-74
2024/01/05 04:13:49;;;;;;;0.20;0.20;;;;;;;4.66;76.42;94256.16;4359045;32;20377;-74
2024/01/05 04:16:15;;;;;;;0.20;0.20;;;;;;;4.85;75.78;94248.28;4382301;32;20288;-73
2024/01/05 04:18:40;;;;;;;0.00;0.00;;;;;;;4.87;75.65;94230.38;4370032;32;20280;-74
2024/01/05 04:21:09;;;;;;;0.40;0.23;;;;;;;4.89;75.69;94220.38;4383786;32;20291;-73
2024/01/05 04:23:36;;;;;;;0.43;0.43;;;;;;;4.87;76.15;94221.72;4391610;32;20184;-73
2024/01/05 04:26:06;;;;;;;0.30;0.30;;;;;;;5.00;75.54;94218.38;4387205;32;20320;-74
2024/01/05 04:28:31;;;;;;;0.30;0.30;;;;;;;4.81;76.54;94216.53;4378617;32;20295;-73
2024/01/05 04:31:01;;;;;;;0.00;0.00;;;;;;;5.00;76.03;94213.91;4374385;32;20288;-74
2024/01/05 04:33:29;;;;;;;0.20;0.20;;;;;;;5.00;75.95;94218.38;4387470;32;20211;-74
2024/01/05 04:35:54;;;;;;;0.13;0.13;;;;;;;5.01;76.46;94220.72;4329157;32;20347;-74
2024/01/05 04:38:20;;;;;;;0.20;0.20;;;;;;;5.03;75.85;94223.06;4383820;32;20322;-74
2024/01/05 04:40:48;;;;;;;0.20;0.20;;;;;;;5.11;76.06;94231.09;4379576;32;20176;-74
2024/01/05 04:43:15;;;;;;;0.97;0.67;;;;;;;5.17;75.59;94218.66;4372269;32;20340;-74
2024/01/05 04:45:41;;;;;;;0.70;0.50;;;;;;;5.09;75.78;94229.81;4351791;32;20324;-73
2024/01/05 04:48:08;;;;;;;0.23;0.23;;;;;;;4.98;75.95;94217.91;4376130;32;20352;-74
2024/01/05 04:50:35;;;;;;;0.80;0.40;;;;;;;4.83;76.60;94219.66;4386006;32;20289;-74
2024/01/05 04:53:01;;;;;;;0.20;0.20;;;;;;;4.98;76.32;94218.69;4390681;32;20378;-70
2024/01/05 04:55:29;;;;;;;2.87;0.27;;;;;;;4.84;76.55;94215.97;4368240;32;20307;-74
2024/01/05 04:57:55;;;;;;;1.40;0.47;;;;;;;4.79;77.30;94223.13;4384310;32;20202;-73
2024/01/05 05:00:23;;;;;;;0.20;0.20;;;;;;;4.87;76.97;94232.22;4379627;32;20276;-74
2024/01/05 05:02:49;;;;;;;0.20;0.20;;;;;;;4.96;76.57;94227.91;4360508;32;20368;-74
2024/01/05 05:05:15;;;;;;;0.03;0.03;;;;;;;5.20;75.65;94225.19;4389754;32;20288;-74
2024/01/05 05:07:41;;;;;;;0.37;0.37;;;;;;;5.03;75.42;94231.72;4358146;32;20351;-73
2024/01/05 05:10:07;;;;;;;0.40;0.40;;;;;;;4.88;76.42;94220.66;4362153;32;20242;-73
2024/01/05 05:12:34;;;;;;;0.10;0.10;;;;;;;4.88;76.57;94236.44;4377373;32;20306;-74
2024/01/05 05:15:00;;;;;;;0.50;0.50;;;;;;;5.12;75.73;94234.50;4387642;32;20403;-73
2024/01/05 05:17:28;;;;;;;0.17;0.17;;;;;;;5.27;75.02;94238.75;4372862;32;20302;-74
2024/01/05 05:19:55;;;;;;;0.33;0.33;;;;;;;5.07;74.89;94237.97;4376487;32;20346;-74
2024/01/05 05:22:22;;;;;;;0.30;0.30;;;;;;;5.25;74.37;94239.03;4378795;32;20363;-73
2024/01/05 05:24:54;;;;;;;0.10;0.10;;;;;;;5.34;73.55;94239.94;4376669;32;20276;-73
2024/01/05 05:27:24;;;;;;;0.30;0.30;;;;;;;5.17;74.30;94229.97;4377507;32;20298;-74
2024/01/05 05:29:50;;;;;;;0.30;0.30;;;;;;;4.97;75.42;94225.00;4376130;32;20365;-74
2024/01/05 05:32:17;;;;;;;0.53;0.53;;;;;;;4.83;75.74;94221.50;4384548;32;20337;-74
2024/01/05 05:34:44;;;;;;;0.73;0.73;;;;;;;4.95;75.60;94216.63;4385913;32;20312;-74
2024/01/05 05:37:12;;;;;;;0.20;0.20;;;;;;;5.09;75.41;94227.19;4393006;32;20287;-73
2024/01/05 05:39:38;;;;;;;0.20;0.20;;;;;;;5.07;74.57;94237.97;4373215;32;20276;-74
2024/01/05 05:42:05;;;;;;;0.37;0.30;;;;;;;4.87;75.61;94230.38;4396868;32;20311;-73
2024/01/05 05:44:31;;;;;;;3.30;0.60;;;;;;;5.06;74.58;94240.88;4380431;32;20283;-73
2024/01/05 05:46:56;;;;;;;0.30;0.30;;;;;;;5.05;74.09;94236.69;4395149;32;20280;-74
2024/01/05 05:49:23;;;;;;;0.40;0.40;;;;;;;4.95;74.80;94236.84;4354819;32;20351;-74
2024/01/05 05:51:48;;;;;;;0.20;0.20;;;;;;;5.11;74.49;94232.94;4355295;32;20192;-74
2024/01/05 05:54:15;;;;;;;0.20;0.20;;;;;;;4.87;76.16;94225.13;4361623;32;20315;-73
2024/01/05 05:56:42;;;;;;;1.20;0.20;;;;;;;4.94;76.03;94224.78;4375058;32;20200;-73
2024/01/05 05:59:08;;;;;;;0.10;0.10;;;;;;;4.59;76.90;94226.03;4374019;32;20284;-73
2024/01/05 06:01:39;;;;;;;0.10;0.10;;;;;;;4.30;78.40;94241.88;4392896;32;20277;-73
2024/01/05 06:04:07;;;;;;;0.17;0.17;;;;;;;4.43;78.34;94238.56;4358161;32;20284;-73
2024/01/05 06:06:33;;;;;;;0.27;0.27;;;;;;;4.81;76.83;94236.75;4359021;32;20352;-73
2024/01/05 06:09:00;;;;;;;0.53;0.47;;;;;;;4.65;77.38;94232.78;4359867;32;20292;-73
2024/01/05 06:11:26;;;;;;;0.10;0.10;;;;;;;4.38;78.54;94234.16;4372974;32;20201;-74
2024/01/05 06:13:59;;;;;;;0.23;0.23;;;;;;;4.54;78.19;94247.91;4360964;32;20343;-74
2024/01/05 06:16:25;;;;;;;0.33;0.33;;;;;;;4.29;78.82;94248.97;4371782;32;20386;-74
2024/01/05 06:18:52;;;;;;;4.30;0.47;;;;;;;4.57;78.19;94246.56;4375459;32;20367;-74
2024/01/05 06:21:19;;;;;;;0.10;0.10;;;;;;;4.77;76.99;94236.56;4381942;32;20272;-74
2024/01/05 06:23:49;;;;;;;0.33;0.30;;;;;;;4.98;75.62;94234.44;4387052;32;20274;-74
2024/01/05 06:26:15;;;;;;;0.23;0.23;;;;;;;4.80;75.77;94246.50;4363606;32;20307;-74
2024/01/05 06:28:40;;;;;;;0.30;0.30;;;;;;;4.91;75.41;94259.50;4373464;32;20281;-74
2024/01/05 06:31:08;;;;;;;0.40;0.40;;;;;;;4.83;75.28;94261.69;4390971;32;20308;-73
2024/01/05 06:33:35;;;;;;;0.10;0.10;;;;;;;4.72;76.04;94260.28;4367322;32;20246;-73
2024/01/05 06:36:00;;;;;;;0.67;0.23;;;;;;;4.58;76.39;94251.50;4360660;32;20284;-74
2024/01/05 06:38:26;;;;;;;0.63;0.50;;;;;;;4.77;74.85;94268.09;4360247;32;20301;-74
2024/01/05 06:40:53;;;;;;;0.37;0.37;;;;;;;4.64;75.00;94281.12;4365460;32;20215;-74
2024/01/05 06:43:19;;;;;;;0.87;0.63;;;;;;;4.37;76.02;94273.81;4386420;32;20356;-74
2024/01/05 06:45:49;;;;;;;0.10;0.10;;;;;;;4.45;76.29;94270.59;4373546;32;20345;-74
2024/01/05 06:48:15;;;;;;;0.20;0.20;;;;;;;4.66;75.32;94269.28;4386876;32;20352;-74
2024/01/05 06:50:42;;;;;;;0.20;0.20;;;;;;;4.63;75.62;94276.94;4386012;32;20297;-73
2024/01/05 06:53:09;;;;;;;0.93;0.63;;;;;;;4.90;74.50;94277.13;4371255;32;20284;-73
2024/01/05 06:55:37;;;;;;;0.30;0.30;;;;;;;5.01;73.75;94285.63;4358701;32;20319;-73
2024/01/05 06:58:03;;;;;;;0.27;0.27;;;;;;;5.01;74.00;94277.75;4388718;32;20352;-74
2024/01/05 07:00:29;;;;;;;0.17;0.17;;;;;;;4.81;74.64;94284.84;4351420;32;20277;-73
2024/01/05 07:02:56;;;;;;;0.10;0.10;;;;;;;4.87;74.27;94287.41;4387645;32;20224;-74
2024/01/05 07:05:24;;;;;;;0.20;0.20;;;;;;;4.92;74.56;94284.72;4369663;32;20277;-74
2024/01/05 07:07:50;;;;;;;0.90;0.63;;;;;;;4.87;75.21;94292.66;4380005;32;20406;-74
2024/01/05 07:10:18;;;;;;;0.13;0.13;;;;;;;4.49;76.54;94288.12;4375737;32;20284;-74
2024/01/05 07:12:45;;;;;;;0.27;0.27;;;;;;;4.49;77.63;94287.34;4376808;32;20295;-73
2024/01/05 07:15:11;;;;;;;0.50;0.50;;;;;;;4.71;76.59;94306.00;4345935;32;20348;-73
2024/01/05 07:17:36;;;;;;;0.33;0.33;;;;;;;4.75;76.62;94301.75;4361411;32;20343;-74
2024/01/05 07:20:04;;;;;;;0.40;0.40;;;;;;;4.68;77.05;94311.81;4391819;32;20334;-74
2024/01/05 07:22:32;;;;;;;0.23;0.20;;;;;;;4.57;77.78;94318.25;4390407;32;20251;-73
2024/01/05 07:25:02;;;;;;;0.47;0.47;;;;;;;4.40;78.71;94299.50;4396636;32;20287;-68
2024/01/05 07:27:35;;;;;;;0.67;0.67;;;;;;;4.49;78.91;94297.84;4342488;32;20276;-66
2024/01/05 07:30:00;;;;;;;0.47;0.47;;;;;;;4.74;77.83;94299.41;4392551;32;20326;-74
2024/01/05 07:32:30;;;;;;;0.20;0.20;;;;;;;4.68;78.07;94301.31;4351776;32;20349;-74
2024/01/05 07:35:00;;;;;;;0.33;0.33;;;;;;;4.55;78.54;94304.62;4376230;32;20256;-74
2024/01/05 07:37:26;;;;;;;1.10;0.70;;;;;;;4.70;78.50;94311.53;4358920;32;20285;-74
2024/01/05 07:39:52;;;;;;;0.43;0.43;;;;;;;4.59;78.32;94302.97;4370017;32;20433;-74
2024/01/05 07:42:19;;;;;;;0.80;0.80;;;;;;;4.69;78.16;94300.25;4368369;32;20208;-74
2024/01/05 07:44:46;;;;;;;0.20;0.20;;;;;;;4.79;77.69;94292.22;4345371;32;20297;-74
2024/01/05 07:47:13;;;;;;;0.50;0.50;;;;;;;4.77;77.09;94294.38;4364213;32;20336;-74
2024/01/05 07:49:42;;;;;;;0.30;0.30;;;;;;;4.78;76.97;94288.03;4375380;32;20288;-72
2024/01/05 07:52:09;;;;;;;0.50;0.50;;;;;;;5.01;75.82;94283.78;4365414;32;20360;-74
2024/01/05 07:54:42;;;;;;;0.53;0.53;;;;;;;4.70;76.13;94293.91;4327581;32;20308;-73
2024/01/05 07:57:11;;;;;;;0.20;0.20;;;;;;;4.66;76.55;94298.16;4341619;32;20364;-74
2024/01/05 07:59:38;;;;;;;0.97;0.50;;;;;;;4.76;76.06;94297.28;4361732;32;20333;-74
2024/01/05 08:02:04;;;;;;;0.10;0.10;;;;;;;4.63;76.46;94293.47;4371712;32;20293;-73
2024/01/05 08:04:34;;;;;;;0.10;0.10;;;;;;;4.72;76.36;94294.44;4363959;32;20298;-74
2024/01/05 08:07:04;;;;;;;0.20;0.20;;;;;;;4.71;76.10;94282.34;4360425;32;20302;-74
2024/01/05 08:09:31;;;;;;;0.13;0.13;;;;;;;4.84;75.68;94292.16;4375623;32;20299;-74
2024/01/05 08:11:56;;;;;;;0.40;0.40;;;;;;;5.01;74.52;94285.63;4365592;32;20285;-74
2024/01/05 08:14:22;;;;;;;3.77;0.80;;;;;;;4.94;74.60;94285.22;4364794;32;20341;-74
2024/01/05 08:16:48;;;;;;;0.40;0.40;;;;;;;5.03;74.28;94286.13;4380799;32;22951;-74
2024/01/05 08:19:14;;;;;;;0.20;0.20;;;;;;;5.16;73.66;94280.97;4376383;32;20238;-74
2024/01/05 08:21:41;;;;;;;0.40;0.40;;;;;;;5.00;73.95;94279.59;4373486;32;20284;-73
2024/01/05 08:24:07;;;;;;;0.23;0.23;;;;;;;4.86;74.29;94298.97;4366543;32;20328;-73
2024/01/05 08:26:37;;;;;;;0.30;0.30;;;;;;;4.60;75.45;94293.25;4357322;32;20374;-73
2024/01/05 08:29:06;;;;;;;0.67;0.67;;;;;;;4.65;74.85;94291.34;4323383;32;20197;-74
2024/01/05 08:31:39;;;;;;;0.33;0.33;;;;;;;5.02;73.87;94297.72;4293064;32;20339;-73
2024/01/05 08:34:05;;;;;;;0.17;0.17;;;;;;;4.81;73.90;94289.31;4339571;32;20309;-74
2024/01/05 08:36:34;;;;;;;0.47;0.40;;;;;;;4.88;74.01;94283.72;4375034;32;20295;-74
2024/01/05 08:39:00;;;;;;;0.43;0.43;;;;;;;4.82;74.03;94289.03;4374834;32;20260;-66
2024/01/05 08:41:29;;;;;;;0.20;0.20;;;;;;;5.16;73.01;94285.44;4374324;32;20354;-74
2024/01/05 08:43:57;;;;;;;3.80;1.00;;;;;;;4.97;72.99;94289.91;4341326;32;20389;-74
2024/01/05 08:46:22;;;;;;;0.33;0.33;;;;;;;5.26;72.14;94289.75;4377060;32;20277;-73
2024/01/05 08:48:51;;;;;;;0.50;0.50;;;;;;;5.47;71.52;94289.19;4360950;32;20430;-74
2024/01/05 08:51:18;;;;;;;0.10;0.10;;;;;;;5.66;70.28;94288.34;4378122;32;20299;-74
2024/01/05 08:53:58;;;;;;;0.20;0.20;;;;;;;5.82;69.43;94282.56;4367238;32;20285;-74
2024/01/05 08:56:27;;;;;;;0.17;0.17;;;;;;;5.82;69.37;94293.09;4379514;32;20335;-74
2024/01/05 08:58:54;;;;;;;0.23;0.23;;;;;;;5.80;69.63;94292.63;4344629;32;20398;-74
2024/01/05 09:01:22;;;;;;;0.10;0.10;;;;;;;5.72;69.83;94288.00;4358765;32;20280;-74
2024/01/05 09:03:48;;;;;;;0.23;0.23;;;;;;;5.82;69.58;94285.19;4392935;32;20280;-74
2024/01/05 09:06:14;;;;;;;0.40;0.30;;;;;;;6.06;68.36;94282.44;4385993;32;20337;-74
2024/01/05 09:08:40;;;;;;;0.70;0.70;;;;;;;6.18;68.22;94287.25;4373299;32;20311;-74
2024/01/05 09:11:08;;;;;;;0.17;0.17;;;;;;;6.16;68.42;94286.75;4372824;32;20264;-74
2024/01/05 09:13:33;;;;;;;0.60;0.60;;;;;;;6.18;68.74;94287.25;4365062;32;20228;-73
2024/01/05 09:15:59;;;;;;;0.30;0.30;;;;;;;6.24;67.89;94282.66;4381361;32;20303;-73
2024/01/05 09:18:27;;;;;;;1.93;1.00;;;;;;;6.37;67.78;94279.28;4397840;32;20234;-73
2024/01/05 09:20:54;;;;;;;0.60;0.60;;;;;;;6.59;66.87;94284.66;4298934;32;20360;-74
2024/01/05 09:23:20;;;;;;;0.20;0.20;;;;;;;6.56;67.50;94290.50;4382010;32;20311;-74
2024/01/05 09:25:46;;;;;;;2.30;1.37;;;;;;;6.74;67.11;94296.72;4379491;32;20271;-74
2024/01/05 09:28:13;;;;;;;0.70;0.70;;;;;;;6.75;67.23;94293.03;4350686;32;20275;-73
2024/01/05 09:30:41;;;;;;;0.30;0.30;;;;;;;6.77;67.08;94302.19;4385476;32;20291;-74
2024/01/05 09:33:07;;;;;;;0.30;0.30;;;;;;;6.97;66.65;94303.62;4365454;32;20295;-74
2024/01/05 09:35:35;;;;;;;2.57;0.70;;;;;;;6.81;66.91;94305.81;4388289;32;20329;-74
2024/01/05 09:38:05;;;;;;;3.60;0.43;;;;;;;6.70;67.04;94303.66;4382904;32;20287;-73
2024/01/05 09:40:30;;;;;;;0.20;0.20;;;;;;;6.74;66.52;94302.78;4382875;32;20402;-73
2024/01/05 09:43:02;;;;;;;0.20;0.20;;;;;;;6.67;66.80;94298.97;4388568;32;20304;-74
2024/01/05 09:45:36;;;;;;;2.87;0.70;;;;;;;6.72;66.97;94293.59;4374057;32;20192;-68
2024/01/05 09:48:07;;;;;;;0.37;0.30;;;;;;;6.92;66.62;94300.31;4316798;32;20312;-72
2024/01/05 09:50:35;;;;;;;0.10;0.10;;;;;;;6.85;67.07;94284.91;4364658;32;20283;-74
2024/01/05 09:53:04;;;;;;;0.10;0.10;;;;;;;6.87;66.00;94277.47;4372867;32;20330;-73
2024/01/05 09:55:31;;;;;;;0.47;0.47;;;;;;;6.95;65.77;94276.00;4385364;32;20303;-73
2024/01/05 09:57:57;;;;;;;0.40;0.40;;;;;;;7.37;64.80;94274.81;4354229;32;20372;-74
2024/01/05 10:00:35;;;;;;;0.43;0.43;;;;;;;7.38;64.32;94269.25;4344051;32;20207;-74
2024/01/05 10:03:09;;;;;;;0.30;0.30;;;;;;;7.09;64.95;94279.38;4366130;32;20312;-74
2024/01/05 10:05:34;;;;;;;0.43;0.43;;;;;;;7.25;64.73;94272.72;4381307;32;20359;-74
2024/01/05 10:08:00;;;;;;;2.30;0.93;;;;;;;7.49;63.80;94262.66;4370284;32;20293;-73
2024/01/05 10:10:56;;;;;;;0.40;0.40;;;;;;;7.41;64.60;94266.03;4364115;32;20267;-74
2024/01/05 10:13:23;;;;;;;1.43;0.57;;;;;;;7.55;64.48;94265.97;4327640;32;20189;-74
2024/01/05 10:16:00;;;;;;;0.37;0.37;;;;;;;7.66;63.55;94261.22;4378862;32;20355;-74
2024/01/05 10:18:29;;;;;;;0.67;0.67;;;;;;;7.62;63.40;94255.00;4372722;32;20280;-74
2024/01/05 10:21:10;;;;;;;0.23;0.23;;;;;;;7.76;63.49;94250.41;4349139;32;20363;-74
2024/01/05 10:23:44;;;;;;;1.63;0.80;;;;;;;7.75;63.71;94246.22;4374327;32;20285;-74
2024/01/05 10:26:19;;;;;;;0.63;0.47;;;;;;;7.72;63.54;94244.16;4362393;32;20295;-74
2024/01/05 10:28:48;;;;;;;0.30;0.30;;;;;;;7.94;62.75;94238.87;4358467;32;20268;-74
2024/01/05 10:31:16;;;;;;;0.40;0.40;;;;;;;8.00;62.59;94236.88;4375126;32;20347;-74
2024/01/05 10:33:53;;;;;;;0.47;0.47;;;;;;;8.12;61.94;94232.56;4358765;32;20328;-74
2024/01/05 10:36:24;;;;;;;0.40;0.40;;;;;;;8.05;62.09;94234.91;4379996;32;20342;-74
2024/01/05 10:38:52;;;;;;;0.53;0.53;;;;;;;7.99;62.22;94233.47;4361478;32;20336;-74
2024/01/05 10:41:23;;;;;;;0.33;0.33;;;;;;;8.20;61.89;94229.22;4352220;32;20342;-74
2024/01/05 10:43:51;;;;;;;0.40;0.40;;;;;;;8.22;62.61;94219.12;4389504;32;20352;-74
2024/01/05 10:46:20;;;;;;;0.77;0.60;;;;;;;8.33;61.67;94224.16;4363362;32;20336;-74
2024/01/05 10:48:48;;;;;;;4.30;1.23;;;;;;;8.18;61.79;94223.44;4352307;32;20295;-74
2024/01/05 10:51:24;;;;;;;0.83;0.67;;;;;;;7.99;62.20;94219.47;4376889;32;20323;-74
2024/01/05 10:54:13;;;;;;;0.40;0.40;;;;;;;8.44;61.34;94214.88;4373568;32;20427;-74
2024/01/05 10:56:43;;;;;;;0.63;0.50;;;;;;;8.38;61.00;94211.56;4379522;32;20284;-74
2024/01/05 10:59:10;;;;;;;0.97;0.63;;;;;;;8.30;61.80;94212.31;4362287;32;20289;-74
2024/01/05 11:01:37;;;;;;;0.50;0.50;;;;;;;8.52;61.39;94222.06;4379690;32;20217;-74
2024/01/05 11:04:05;;;;;;;2.70;0.67;;;;;;;8.64;60.45;94227.50;4380380;32;20283;-73
2024/01/05 11:06:34;;;;;;;0.50;0.50;;;;;;;8.74;60.35;94219.28;4346271;32;20281;-73
2024/01/05 11:09:23;;;;;;;0.27;0.27;;;;;;;8.68;60.68;94225.81;4356967;32;20329;-74
2024/01/05 11:12:38;;;;;;;0.40;0.40;;;;;;;8.79;60.82;94211.22;4369848;32;20365;-74
2024/01/05 11:15:32;;;;;;;0.50;0.50;;;;;;;8.78;61.14;94209.66;4376020;32;20299;-74
2024/01/05 11:18:30;;;;;;;0.43;0.30;;;;;;;8.78;60.53;94212.28;4347563;32;20192;-74
2024/01/05 11:21:24;;;;;;;0.30;0.30;;;;;;;8.78;59.75;94212.28;4386842;32;20312;-74
2024/01/05 11:23:54;;;;;;;0.20;0.20;;;;;;;8.86;59.88;94214.19;4363404;32;20351;-74
2024/01/05 11:26:34;;;;;;;6.80;0.63;;;;;;;8.96;59.15;94207.78;4377273;32;20392;-74
2024/01/05 11:29:00;;;;;;;1.43;0.50;;;;;;;9.10;59.10;94202.38;4342447;32;20285;-73
2024/01/05 11:31:50;;;;;;;3.40;0.27;;;;;;;9.09;59.12;94193.66;4390794;32;20259;-74
2024/01/05 11:34:36;;;;;;;0.33;0.33;;;;;;;9.11;58.78;94175.63;4381285;32;20242;-74
2024/01/05 11:37:06;;;;;;;0.57;0.57;;;;;;;9.06;58.25;94172.34;4345010;32;20263;-74
2024/01/05 11:39:49;;;;;;;0.30;0.30;;;;;;;8.98;56.57;94159.88;4354408;32;20208;-70
2024/01/05 11:42:30;;;;;;;0.30;0.30;;;;;;;9.00;57.62;94165.63;4383447;32;20233;-74
2024/01/05 11:44:56;;;;;;;0.53;0.30;;;;;;;8.99;58.09;94162.22;4372748;32;20204;-74
2024/01/05 11:47:40;;;;;;;0.63;0.57;;;;;;;9.12;57.97;94165.81;4333805;32;20283;-74